Northrop, MN (56075)

7:05 AM CST on December 05, 2016 (GMT -0600)
FudgeHome | | Change Station

Elev 1178 ft 43.67 °N, 94.47 °W | Updated 26 seconds ago

Overcast
Overcast
34.0 °F
Feels Like 29 °F
N
5.0
Wind Variable Wind from SE

Today
High -- | Low -- °F
--% Chance of Precip.
Yesterday
High -- | Low -- °F
Precip. -- in
Pressure 29.78 in
Visibility 10.0 miles
Clouds Overcast 8000 ft
Windchill 29 °F
Dew Point 32 °F
Humidity 93%
Rainfall --
Snow Depth Not available.
7:36 AM 4:40 PM
Waxing Crescent, 31% visible
METAR KFRM 051256Z AUTO 16012KT 10SM OVC080 01/M01 A2973 RMK AO2 SLP083 T00061006 FZRANO PNO $
Pressure 29.78 in
Visibility 10.0 miles
Clouds Overcast 8000 ft
Windchill 29 °F
Dew Point 32 °F
Humidity 93%
Rainfall --
Snow Depth Not available.
7:36 AM 4:40 PM
Waxing Crescent, 31% visible
METAR KFRM 051256Z AUTO 16012KT 10SM OVC080 01/M01 A2973 RMK AO2 SLP083 T00061006 FZRANO PNO $

10-Day Weather Forecast

Almanac

Astronomy

Dec. 05, 2016 Rise Set
Actual Time
Civil Twilight
Nautical Twilight
Astronomical Twilight
Moon
Length of Visible Light
Length of Day
Tomorrow will be .
, % of the Moon is Illuminated

Today's Extremes

State Highs State Lows

Community

WunderPhotos

Upload Photos

1,955,780 photos uploaded!

WunderBlog® & News

Nearby

Air Quality

  Air Quality AQ Index Pollutant
Not available.

Snow Depth

Station Depth Elevation

Earthquake Activity

City Distance Mag. Time & Date
Minimum magnitude displayed is 2.5.

Coastal Water Temperatures

Place Temperature

Stations

Nearby Weather Stations

Station Location Temp. Windchill Dew Point Humidity Wind Precip. Elev Updated Type
                   

Watches & Warnings

There are currently no watches in effect.